Pagrindinis puslapis
METAR-TAF:

METAR-TAF

Oro uostai :

Damamas, Saudo Arabija

platuma: 26-28N, ilguma: 049-47E, Aukštis: 22 m

Dabartinis oras

Ataskaita buvo paskelbta 36 minutes, ne 14:00 UTC
Vėjas 10 kt iš Šiaurės Rytų
Temperatūra 41°C
Drėgmė 21%
Slėgis 1004 hPa
Matomumas 10 km arba daugiau
nėra debesų žemiau 1500 m ir nėra kamuolinių lietaus debesų

METAR: OEDF 191400Z 05010KT CAVOK 41/14 Q1004 NOSIG

Laikas: 17:36 (14:36 UTC)

Prognozė

Ataskaita buvo paskelbta 5 valandos ir 36 minutes, ne 09:00 UTC
Prognozė galioja nuo 19 metu 12 UTC su 20 metu 18 UTC
Vėjas 8 kt iš Rytų/Šiaurės Rytų
Matomumas 10 km arba daugiau
nėra debesų žemiau 1500 m ir nėra kamuolinių lietaus debesų
Tapsmas
nuo 19 metu 18 UTC su 19 metu 20 UTC
Vėjas 3 kt nuo kintamojo kryptimis
Tapsmas
nuo 20 metu 00 UTC su 20 metu 02 UTC
Vėjas 8 kt iš Šiaurės Vakarų

TAF: OEDF 190900Z 1912/2018 06008KT CAVOK BECMG 1918/1920 VRB03KT BECMG 2000/2002 31008KT

Orai ataskaitas ir orų prognozės (METAR, TAF).

turimą stotys yra geltonos ir raudonos taškus žemėlapyje.

Perkelti pele per norėdami pamatyti stoties vardą.

Tada spustelėkite, norėdami matyti oro stebėjimo ir prognozės.

Norėdami pakeisti žemėlapį: spustelėkite ant žalios mygtukų su juodo kryžiaus žemyn,; žalią mygtuką su brūkšneliu, jei norite nutolinti; arba žalių rodyklių gretimoms žemėlapius.


METAR-TAF: